Latest Weather Observations for Melbourne Airport

IDV60901

Issued at 4:01 pm EST Tuesday 24 May 2016 (issued every 10 minutes, with the page automatically refreshed every 10 minutes)

About weather observations | Map of Melbourne area stations | Latest observations for Melbourne area | Other Formats
Station Details ID: 086282 Name: MELBOURNE AIRPORT Lat: -37.67 Lon: 144.83 Height: 113.4 m
Data from the previous 72 hours. | See also: Recent months at Melbourne Airport
Date/Time
EST
Tmp

°C
App
Tmp
°C
Dew
Point
°C
Rel
Hum
%
Delta-T

°C
Wind Press
QNH
hPa
Press
MSL
hPa
Rain
since
9 am
mm
Dir
 
Spd
km/h
Gust
km/h
Spd
kts
Gust
kts
24/03:30pm 14.9 11.0 5.2 52 4.6 SW 15 20 8 11 1019.4 1019.4 0.0
24/03:00pm 15.5 11.6 5.5 51 4.8 SSW 15 20 8 11 1019.3 1019.3 0.0
24/02:30pm 14.6 10.6 4.8 52 4.6 SSW 15 26 8 14 1019.3 1019.3 0.0
24/02:00pm 14.8 10.4 5.0 52 4.6 WSW 17 26 9 14 1019.6 1019.6 0.0
24/01:30pm 15.4 11.0 4.5 48 5.1 SW 17 22 9 12 1019.7 1019.7 0.0
24/01:00pm 14.3 8.9 4.6 52 4.5 SW 22 32 12 17 1019.7 1019.7 0.0
24/12:30pm 13.8 8.2 5.5 57 3.9 WSW 24 32 13 17 1020.3 1020.3 0.0
24/12:00pm 13.6 8.1 5.8 59 3.7 WSW 24 33 13 18 1020.6 1020.6 0.0
24/11:30am 13.8 8.5 6.8 62 3.4 WSW 24 33 13 18 1021.2 1021.2 0.0
24/11:00am 14.2 8.2 7.0 62 3.5 WSW 28 35 15 19 1021.5 1021.5 0.0
24/10:30am 13.6 8.0 7.3 65 3.1 WSW 26 33 14 18 1021.5 1021.5 0.0
24/10:00am 13.0 7.9 7.7 70 2.6 WSW 24 30 13 16 1021.6 1021.6 0.0
24/09:30am 12.6 8.0 8.2 74 2.2 W 22 30 12 16 1021.4 1021.4 0.0
24/09:00am 11.8 7.6 8.1 78 1.8 W 20 28 11 15 1021.4 1021.4 1.4
24/08:30am 10.7 7.0 8.0 83 1.3 WNW 17 26 9 14 1021.3 1021.3 1.4
24/08:00am 9.5 5.3 7.6 88 0.9 WNW 19 24 10 13 1021.1 1021.1 1.4
24/07:30am 8.8 4.5 6.9 88 0.9 WNW 19 26 10 14 1020.8 1020.8 1.4
24/07:00am 8.7 4.8 7.0 89 0.8 WNW 17 19 9 10 1020.4 1020.4 1.4
24/06:30am 9.6 5.4 7.5 87 1.0 WNW 19 26 10 14 1020.2 1020.2 1.4
24/06:00am 9.6 5.8 7.5 87 1.0 WNW 17 19 9 10 1019.9 1019.9 1.4
24/05:30am 10.7 7.1 8.2 84 1.2 WNW 17 22 9 12 1019.8 1019.8 1.4
24/05:00am 10.3 6.6 7.8 84 1.2 WNW 17 20 9 11 1019.7 1019.7 1.4
24/04:30am 10.1 6.3 7.6 84 1.2 WNW 17 20 9 11 1019.7 1019.7 1.4
24/04:00am 9.8 6.3 7.1 83 1.3 NW 15 20 8 11 1019.5 1019.5 1.4
24/03:30am 9.4 5.5 7.3 87 1.0 WNW 17 20 9 11 1019.5 1019.5 1.4
24/03:00am 10.2 7.1 7.3 82 1.4 NW 13 17 7 9 1019.6 1019.6 1.4
24/02:30am 10.5 7.7 8.5 87 1.0 NW 13 17 7 9 1019.6 1019.6 1.4
24/02:00am 10.2 8.6 8.8 91 0.7 NNW 7 11 4 6 1019.4 1019.4 1.4
24/01:30am 9.9 7.5 8.5 91 0.7 WNW 11 15 6 8 1019.5 1019.5 1.4
24/01:00am 10.0 6.4 8.4 90 0.8 WNW 17 28 9 15 1019.6 1019.6 1.4
24/12:30am 8.9 5.8 7.2 89 0.8 NW 13 19 7 10 1019.8 1019.8 1.4
24/12:00am 9.1 5.6 7.4 89 0.8 WNW 15 17 8 9 1020.0 1020.0 1.4
 
Date/Time
EST
Tmp

°C
App
Tmp
°C
Dew
Point
°C
Rel
Hum
%
Delta-T

°C
Wind Press
QNH
hPa
Press
MSL
hPa
Rain
since
9 am
mm
Dir
 
Spd
km/h
Gust
km/h
Spd
kts
Gust
kts
23/11:30pm 8.8 4.9 7.3 90 0.7 WNW 17 24 9 13 1019.9 1019.9 1.4
23/11:00pm 9.5 6.6 8.1 91 0.7 NW 13 17 7 9 1019.9 1019.9 1.4
23/10:30pm 9.7 6.9 8.7 93 0.5 NW 13 17 7 9 1019.9 1019.9 1.4
23/10:00pm 10.1 7.8 9.1 93 0.5 NW 11 15 6 8 1019.9 1019.9 1.4
23/09:30pm 10.0 8.2 9.4 96 0.3 W 9 11 5 6 1019.9 1019.9 1.4
23/09:19pm 10.4 8.7 9.8 96 0.3 W 9 11 5 6 1019.8 1019.8 1.4
23/09:00pm 10.5 8.1 9.9 96 0.3 SW 13 17 7 9 1019.7 1019.7 1.4
23/08:36pm 10.7 9.5 9.5 92 0.6 SE 6 9 3 5 1019.6 1019.6 0.4
23/08:30pm 10.6 8.8 9.6 93 0.5 SSE 9 11 5 6 1019.5 1019.5 0.4
23/08:14pm 10.7 8.5 9.3 91 0.7 SSW 11 13 6 7 1019.6 1019.6 0.2
23/08:00pm 11.2 8.2 7.5 78 1.8 WNW 13 26 7 14 1019.5 1019.5 0.0
23/07:30pm 11.8 8.6 6.8 71 2.4 NW 13 19 7 10 1019.1 1019.1 0.0
23/07:00pm 11.9 8.7 6.7 70 2.5 NW 13 19 7 10 1018.9 1018.9 0.0
23/06:30pm 12.4 9.2 6.8 68 2.7 NNW 13 17 7 9 1018.9 1018.9 0.0
23/06:00pm 12.5 8.0 6.9 68 2.7 WNW 20 26 11 14 1018.7 1018.7 0.0
23/05:30pm 12.8 7.8 6.3 64 3.1 W 22 33 12 18 1018.5 1018.5 0.0
23/05:00pm 12.5 7.1 6.4 66 2.9 W 24 33 13 18 1018.4 1018.4 0.0
23/04:30pm 13.9 6.6 4.4 52 4.4 WSW 32 50 17 27 1018.2 1018.2 0.0
23/04:22pm 14.2 6.7 3.7 49 4.8 WSW 32 50 17 27 1018.1 1018.1 0.0
23/04:00pm 15.0 8.0 2.2 42 5.7 W 28 37 15 20 1017.7 1017.8 0.0
23/03:30pm 15.2 7.5 2.2 41 5.8 W 32 41 17 22 1017.7 1017.8 0.0
23/03:00pm 15.3 7.3 0.7 37 6.3 W 32 43 17 23 1017.5 1017.6 0.0
23/02:30pm 15.5 7.4 1.0 37 6.3 W 33 44 18 24 1017.4 1017.5 0.0
23/02:00pm 14.9 6.8 1.1 39 6.0 W 33 43 18 23 1017.5 1017.6 0.0
23/01:30pm 15.6 6.6 2.2 40 6.0 W 39 50 21 27 1017.8 1017.9 0.0
23/01:00pm 16.0 7.7 2.2 39 6.2 W 35 48 19 26 1017.9 1018.0 0.0
23/12:30pm 15.2 5.8 2.2 41 5.8 W 41 52 22 28 1017.9 1018.0 0.0
23/12:00pm 15.4 6.0 2.2 41 5.9 W 41 54 22 29 1018.2 1018.2 0.0
23/11:30am 15.2 5.4 2.5 42 5.7 W 43 54 23 29 1018.1 1018.1 0.0
23/11:17am 13.9 4.8 1.7 43 5.3 W 39 61 21 33 1018.3 1018.3 0.0
23/11:00am 14.2 5.2 2.2 44 5.3 W 39 52 21 28 1018.5 1018.5 0.0
23/10:30am 13.8 6.0 4.8 54 4.2 W 35 48 19 26 1018.1 1018.1 0.0
23/10:00am 12.9 6.0 4.7 57 3.8 W 30 43 16 23 1017.4 1017.5 0.0
23/09:30am 12.6 5.8 5.1 60 3.5 W 30 39 16 21 1017.1 1017.2 0.0
23/09:00am 12.4 6.0 5.1 61 3.4 W 28 41 15 22 1017.1 1017.2 0.6
23/08:30am 11.7 4.5 5.0 63 3.1 W 32 39 17 21 1016.7 1016.8 0.6
23/08:00am 11.5 5.1 5.2 65 2.9 W 28 39 15 21 1016.3 1016.4 0.6
23/07:30am 11.6 4.8 5.3 65 2.9 W 30 39 16 21 1015.7 1015.7 0.6
23/07:00am 12.0 5.7 5.6 65 3.0 W 28 35 15 19 1014.9 1014.9 0.6
23/06:30am 11.1 7.6 7.4 78 1.8 W 15 19 8 10 1014.1 1014.1 0.6
23/06:00am 12.4 9.1 6.6 68 2.8 WNW 13 17 7 9 1013.7 1013.7 0.4
23/05:30am 12.6 9.3 6.6 67 2.9 NW 13 19 7 10 1013.0 1013.0 0.4
23/05:00am 12.9 9.4 7.2 68 2.8 NW 15 24 8 13 1012.8 1012.8 0.4
23/04:30am 13.3 8.9 7.2 66 3.0 WNW 20 30 11 16 1012.2 1012.2 0.4
23/04:00am 13.8 8.7 7.5 66 3.1 NW 24 32 13 17 1012.0 1012.0 0.4
23/03:30am 13.8 7.9 7.5 66 3.1 NW 28 41 15 22 1011.7 1011.7 0.4
23/03:00am 13.8 8.6 7.3 65 3.2 NW 24 37 13 20 1011.1 1011.1 0.4
23/02:46am 13.6 7.1 8.0 69 2.8 NW 32 50 17 27 1010.8 1010.8 0.4
23/02:30am 14.7 8.5 7.7 63 3.5 WNW 30 44 16 24 1011.2 1011.2 0.4
23/02:24am 15.0 9.8 10.3 73 2.5 WNW 28 44 15 24 1011.4 1011.4 0.4
23/02:07am 15.5 12.3 13.2 86 1.3 NW 22 37 12 20 1011.7 1011.7 0.4
23/02:00am 16.5 13.2 12.7 78 2.1 NW 22 30 12 16 1011.1 1011.1 0.0
23/01:30am 17.0 14.5 12.3 74 2.6 NW 17 32 9 17 1010.8 1010.8 0.0
23/01:00am 17.8 13.7 11.6 67 3.4 NNW 24 37 13 20 1010.5 1010.5 0.0
23/12:30am 17.4 15.0 9.9 61 4.0 NNW 13 17 7 9 1010.7 1010.7 0.0
23/12:00am 17.9 13.2 9.4 57 4.5 N 24 32 13 17 1010.5 1010.5 0.0
 
Date/Time
EST
Tmp

°C
App
Tmp
°C
Dew
Point
°C
Rel
Hum
%
Delta-T

°C
Wind Press
QNH
hPa
Press
MSL
hPa
Rain
since
9 am
mm
Dir
 
Spd
km/h
Gust
km/h
Spd
kts
Gust
kts
22/11:30pm 18.5 12.6 9.0 54 5.0 N 30 44 16 24 1010.2 1010.2 0.0
22/11:00pm 18.7 12.9 9.5 55 4.9 NNE 30 37 16 20 1009.9 1009.9 0.0
22/10:30pm 19.2 12.4 9.4 53 5.2 N 35 48 19 26 1010.9 1010.9 0.0
22/10:00pm 19.4 13.2 9.5 52 5.3 N 32 43 17 23 1010.7 1010.7 0.0
22/09:30pm 19.5 13.2 8.9 50 5.6 NNE 32 39 17 21 1010.9 1010.9 0.0
22/09:00pm 19.7 13.1 8.4 48 5.9 N 33 48 18 26 1011.4 1011.4 0.0
22/08:30pm 19.9 12.8 8.2 46 6.1 NNE 35 46 19 25 1011.4 1011.4 0.0
22/08:00pm 20.0 11.8 8.4 47 6.1 NNE 41 56 22 30 1011.3 1011.3 0.0
22/07:30pm 19.6 10.6 8.8 49 5.7 N 46 57 25 31 1011.3 1011.3 0.0
22/07:00pm 19.5 11.0 9.1 51 5.5 N 44 57 24 31 1012.0 1012.0 0.0
22/06:30pm 19.2 9.3 9.9 55 5.0 N 52 80 28 43 1011.9 1011.9 0.0
22/06:01pm 19.3 11.0 10.2 55 4.9 N 44 63 24 34 1012.0 1012.0 0.0
22/06:00pm 19.2 10.9 10.1 55 4.9 N 44 56 24 30 1011.9 1011.9 0.0
22/05:48pm 19.0 12.5 10.3 57 4.7 N 35 54 19 29 1012.0 1012.0 0.0
22/05:30pm 19.1 11.4 10.2 56 4.8 NNE 41 52 22 28 1012.1 1012.1 0.0
22/05:00pm 19.3 11.2 10.0 55 5.0 N 43 61 23 33 1012.1 1012.1 0.0
22/04:53pm 19.5 11.3 9.8 53 5.2 N 43 61 23 33 1012.1 1012.1 0.0
22/04:30pm 19.4 11.6 9.9 54 5.1 N 41 56 22 30 1012.4 1012.4 0.0
22/04:00pm 19.7 11.3 9.8 52 5.3 N 44 57 24 31 1012.5 1012.5 0.0
22/03:43pm 20.1 13.0 9.4 50 5.7 N 37 56 20 30 1012.6 1012.6 0.0
22/03:30pm 20.5 13.8 9.5 49 5.9 N 35 48 19 26 1012.6 1012.6 0.0
22/03:17pm 20.6 13.4 9.2 48 6.1 N 37 59 20 32 1012.4 1012.4 0.0
22/03:00pm 20.4 12.8 8.9 47 6.1 N 39 56 21 30 1012.5 1012.5 0.0
22/02:48pm 20.4 12.8 8.9 47 6.1 N 39 57 21 31 1012.6 1012.6 0.0
22/02:30pm 20.2 10.5 8.9 48 6.0 N 50 61 27 33 1012.6 1012.6 0.0
22/02:12pm 20.1 11.6 9.2 49 5.8 N 44 63 24 34 1012.9 1012.9 0.0
22/02:00pm 19.8 10.9 9.3 50 5.6 N 46 63 25 34 1012.8 1012.8 0.0
22/01:40pm 18.7 10.8 9.5 55 4.9 N 41 59 22 32 1012.7 1012.7 0.0
22/01:30pm 18.5 10.7 9.7 56 4.7 N 41 56 22 30 1012.8 1012.8 0.0
22/01:00pm 17.7 10.3 9.8 60 4.2 N 39 61 21 33 1013.2 1013.2 0.0
22/12:31pm 17.4 9.0 9.6 60 4.1 N 44 63 24 34 1013.8 1013.8 0.0
22/12:30pm 17.4 8.6 9.4 59 4.2 N 46 63 25 34 1013.7 1013.7 0.0
22/12:00pm 17.4 9.5 9.4 59 4.2 N 41 61 22 33 1014.5 1014.5 0.0
22/11:30am 17.9 8.2 9.1 56 4.6 N 50 61 27 33 1014.8 1014.8 0.0
22/11:00am 17.5 7.8 9.1 58 4.4 NNE 50 70 27 38 1015.0 1015.0 0.0
22/10:30am 16.0 6.2 8.8 62 3.7 NNE 50 70 27 38 1015.9 1015.9 0.0
22/10:13am 16.5 5.9 8.5 59 4.1 NNE 54 72 29 39 1015.6 1015.6 0.0
22/10:00am 16.2 7.1 8.6 60 3.9 N 46 59 25 32 1016.6 1016.7 0.0
22/09:30am 16.4 8.3 8.6 60 4.0 N 41 59 22 32 1016.5 1016.6 0.0
22/09:00am 15.9 10.3 8.7 62 3.7 NNE 28 50 15 27 1017.0 1017.1 0.0
22/08:56am 16.0 11.9 8.8 62 3.7 NNE 20 43 11 23 1017.0 1017.1 0.0
22/08:30am 14.3 12.8 8.3 67 3.0 NNE 6 13 3 7 1017.4 1017.5 0.0
22/08:00am 13.2 7.8 8.0 71 2.6 NNE 26 32 14 17 1017.5 1017.6 0.0
22/07:30am 12.9 6.2 7.4 69 2.7 NNE 32 46 17 25 1017.6 1017.7 0.0
22/07:23am 13.0 7.1 7.5 69 2.7 NNE 28 46 15 25 1017.8 1017.9 0.0
22/07:00am 12.7 7.2 7.4 70 2.6 NNE 26 33 14 18 1018.2 1018.2 0.0
22/06:35am 13.1 7.2 7.4 68 2.8 NNE 28 46 15 25 1017.8 1017.9 0.0
22/06:30am 12.6 7.1 7.7 72 2.4 NNE 26 33 14 18 1017.8 1017.9 0.0
22/06:00am 11.8 7.7 7.7 76 2.0 NE 19 26 10 14 1018.5 1018.5 0.0
22/05:30am 10.4 8.1 7.5 82 1.4 NNE 9 15 5 8 1018.8 1018.8 0.0
22/05:00am 11.0 8.0 7.7 80 1.6 NNE 13 19 7 10 1018.7 1018.7 0.0
22/04:30am 12.5 6.7 7.8 73 2.3 N 28 30 15 16 1018.7 1018.7 0.0
22/04:00am 11.6 4.4 7.7 77 1.9 N 35 39 19 21 1018.5 1018.5 0.0
22/03:30am 12.4 4.5 7.9 74 2.2 N 39 50 21 27 1018.3 1018.3 0.0
22/03:00am 12.8 6.0 7.9 72 2.4 N 33 41 18 22 1018.7 1018.7 0.0
22/02:53am 12.7 6.9 8.1 73 2.3 N 28 52 15 28 1018.9 1018.9 0.0
22/02:30am 12.6 9.7 8.2 74 2.2 NNE 13 20 7 11 1019.4 1019.4 0.0
22/02:00am 13.3 11.7 8.1 71 2.6 N 6 9 3 5 1019.4 1019.4 0.0
22/01:30am 13.0 8.0 8.2 72 2.4 NNE 24 32 13 17 1019.3 1019.3 0.0
22/01:00am 13.5 7.4 8.1 70 2.7 NNE 30 41 16 22 1019.3 1019.3 0.0
22/12:30am 12.6 8.6 8.2 74 2.2 N 19 35 10 19 1019.8 1019.8 0.0
22/12:00am 12.7 7.8 8.5 75 2.1 NNE 24 30 13 16 1020.3 1020.3 0.0
 
Date/Time
EST
Tmp

°C
App
Tmp
°C
Dew
Point
°C
Rel
Hum
%
Delta-T

°C
Wind Press
QNH
hPa
Press
MSL
hPa
Rain
since
9 am
mm
Dir
 
Spd
km/h
Gust
km/h
Spd
kts
Gust
kts
21/11:30pm 12.3 8.2 8.5 77 1.9 N 20 30 11 16 1020.5 1020.5 0.0
21/11:00pm 12.0 7.5 8.4 78 1.8 N 22 30 12 16 1020.5 1020.5 0.0
21/10:30pm 12.0 5.9 8.4 78 1.8 N 30 41 16 22 1021.1 1021.1 0.0
21/10:00pm 12.6 6.9 8.4 75 2.1 N 28 39 15 21 1021.4 1021.4 0.0
21/09:37pm 12.7 6.6 8.3 74 2.2 N 30 48 16 26 1021.6 1021.6 0.0
21/09:30pm 12.6 6.2 8.4 75 2.1 N 32 41 17 22 1021.7 1021.7 0.0
21/09:00pm 12.9 6.4 8.3 73 2.3 N 32 39 17 21 1021.9 1021.9 0.0
21/08:30pm 13.3 7.2 8.1 71 2.6 N 30 35 16 19 1021.8 1021.8 0.0
21/08:00pm 13.1 7.8 8.5 73 2.3 N 26 32 14 17 1022.0 1022.0 0.0
21/07:30pm 13.5 8.6 8.5 72 2.5 N 24 30 13 16 1021.6 1021.6 0.0
21/07:00pm 13.6 8.6 8.2 70 2.7 N 24 32 13 17 1021.6 1021.6 0.0
21/06:30pm 13.6 9.0 8.2 70 2.7 N 22 32 12 17 1021.6 1021.6 0.0
21/06:00pm 14.1 8.6 7.6 65 3.2 N 26 33 14 18 1021.4 1021.4 0.0
21/05:30pm 14.6 9.2 7.8 63 3.4 N 26 37 14 20 1021.2 1021.2 0.0
21/05:00pm 14.8 9.4 8.2 64 3.3 N 26 32 14 17 1021.3 1021.3 0.0
21/04:30pm 15.4 10.1 8.5 63 3.5 N 26 41 14 22 1021.2 1021.2 0.0

Latest Capital City Observations: Canberra | Sydney | Melbourne | Brisbane | Adelaide | Perth | Hobart | Darwin

Other Formats:

Comma delimited format used in spreadsheet applications
http://www.bom.gov.au/fwo/IDV60901/IDV60901.94866.axf

JavaScript Object Notation format (JSON) in row-major order
http://www.bom.gov.au/fwo/IDV60901/IDV60901.94866.json